EZY95A EGKK-EGSS
Flight info
| Callsign | EZY95A |
|---|---|
| Flight time | 0h 18m |
| Altitude | 9000 |
| Route | FRANE DCT DET |
| Aircraft | A21N/M-SDE2E3FGHIRWXY/LB1 |
Departure
| Time | 2026-05-04 11:22 |
|---|---|
| Airport | London Gatwick Airport (EGKK) |
Arrival
| Time | 2026-05-04 11:40 |
|---|---|
| Airport | London Stansted Airport (EGSS) |
| Time | Latitude | Longitude | Altitude | Speed | Heading |
|---|---|---|---|---|---|
| 2026-05-04 10:56 | 51.15331 | -0.17805 | 213 ft | 0 kts | 347° |
| 2026-05-04 11:08 | 51.15322 | -0.17802 | 209 ft | 2 kts | 347° |
| 2026-05-04 11:10 | 51.15266 | -0.17704 | 215 ft | 0 kts | 258° |
| 2026-05-04 11:12 | 51.15263 | -0.17732 | 214 ft | 7 kts | 258° |
| 2026-05-04 11:12 | 51.15240 | -0.17904 | 217 ft | 24 kts | 256° |
| 2026-05-04 11:12 | 51.15198 | -0.18187 | 216 ft | 22 kts | 257° |
| 2026-05-04 11:12 | 51.15161 | -0.18476 | 216 ft | 31 kts | 259° |
| 2026-05-04 11:13 | 51.15121 | -0.18777 | 209 ft | 27 kts | 257° |
| 2026-05-04 11:13 | 51.15076 | -0.19114 | 212 ft | 35 kts | 258° |
| 2026-05-04 11:13 | 51.15022 | -0.19510 | 211 ft | 28 kts | 256° |
| 2026-05-04 11:13 | 51.14976 | -0.19845 | 211 ft | 35 kts | 258° |
| 2026-05-04 11:14 | 51.14920 | -0.20257 | 206 ft | 41 kts | 257° |
| 2026-05-04 11:14 | 51.14859 | -0.20708 | 205 ft | 38 kts | 257° |
| 2026-05-04 11:14 | 51.14825 | -0.20952 | 215 ft | 7 kts | 257° |
| 2026-05-04 11:16 | 51.14758 | -0.21342 | 205 ft | 6 kts | 255° |
| 2026-05-04 11:16 | 51.14733 | -0.21383 | 212 ft | 5 kts | 193° |
| 2026-05-04 11:16 | 51.14715 | -0.21381 | 209 ft | 0 kts | 167° |
| 2026-05-04 11:17 | 51.14709 | -0.21378 | 209 ft | 3 kts | 161° |
| 2026-05-04 11:19 | 51.14525 | -0.21197 | 214 ft | 13 kts | 98° |
| 2026-05-04 11:19 | 51.14527 | -0.21121 | 217 ft | 2 kts | 79° |
| 2026-05-04 11:19 | 51.14528 | -0.21117 | 217 ft | 0 kts | 79° |
| 2026-05-04 11:20 | 51.14550 | -0.20944 | 212 ft | 43 kts | 78° |
| 2026-05-04 11:20 | 51.14657 | -0.20184 | 219 ft | 100 kts | 77° |
| 2026-05-04 11:20 | 51.14858 | -0.18761 | 209 ft | 160 kts | 77° |
| 2026-05-04 11:20 | 51.15121 | -0.16844 | 296 ft | 191 kts | 78° |
| 2026-05-04 11:22 | 51.16801 | 0.00307 | 4193 ft | 260 kts | 91° |
| 2026-05-04 11:22 | 51.16760 | 0.03218 | 4753 ft | 265 kts | 92° |
| 2026-05-04 11:23 | 51.16706 | 0.06167 | 5057 ft | 268 kts | 92° |
| 2026-05-04 11:23 | 51.16650 | 0.09161 | 5714 ft | 272 kts | 92° |
| 2026-05-04 11:24 | 51.18229 | 0.27338 | 8997 ft | 290 kts | 61° |
| 2026-05-04 11:25 | 51.19250 | 0.30122 | 8994 ft | 291 kts | 60° |
| 2026-05-04 11:25 | 51.20292 | 0.32897 | 8993 ft | 292 kts | 60° |
| 2026-05-04 11:25 | 51.21338 | 0.35668 | 8992 ft | 292 kts | 60° |
| 2026-05-04 11:26 | 51.23429 | 0.41213 | 8998 ft | 292 kts | 60° |
| 2026-05-04 11:27 | 51.31567 | 0.59377 | 8993 ft | 290 kts | 16° |
| 2026-05-04 11:28 | 51.33551 | 0.59841 | 9020 ft | 289 kts | 1° |
| 2026-05-04 11:28 | 51.35566 | 0.59880 | 9015 ft | 290 kts | 359° |
| 2026-05-04 11:28 | 51.37580 | 0.59855 | 9018 ft | 290 kts | 358° |
| 2026-05-04 11:28 | 51.39599 | 0.59832 | 9012 ft | 290 kts | 358° |
| 2026-05-04 11:29 | 51.41618 | 0.59820 | 9021 ft | 290 kts | 359° |
| 2026-05-04 11:29 | 51.43639 | 0.59815 | 9016 ft | 290 kts | 359° |
| 2026-05-04 11:29 | 51.45658 | 0.59816 | 9018 ft | 290 kts | 359° |
| 2026-05-04 11:29 | 51.47677 | 0.59819 | 9024 ft | 290 kts | 359° |
| 2026-05-04 11:31 | 51.64357 | 0.59770 | 9010 ft | 360 kts | 351° |
| 2026-05-04 11:33 | 51.68144 | 0.40062 | 6273 ft | 288 kts | 251° |
| 2026-05-04 11:33 | 51.67501 | 0.36994 | 5400 ft | 299 kts | 251° |
| 2026-05-04 11:33 | 51.66818 | 0.33765 | 4598 ft | 311 kts | 251° |
| 2026-05-04 11:34 | 51.66109 | 0.30429 | 4121 ft | 317 kts | 252° |
| 2026-05-04 11:34 | 51.65784 | 0.26948 | 3985 ft | 312 kts | 274° |
| 2026-05-04 11:34 | 51.66326 | 0.23717 | 3975 ft | 289 kts | 295° |
| 2026-05-04 11:34 | 51.67248 | 0.20969 | 3969 ft | 269 kts | 300° |
| 2026-05-04 11:35 | 51.68169 | 0.18475 | 3964 ft | 251 kts | 301° |
| 2026-05-04 11:35 | 51.69188 | 0.16272 | 3770 ft | 240 kts | 315° |
| 2026-05-04 11:35 | 51.70416 | 0.14506 | 3436 ft | 236 kts | 320° |
| 2026-05-04 11:35 | 51.71698 | 0.12862 | 3068 ft | 235 kts | 326° |
| 2026-05-04 11:36 | 51.73090 | 0.11483 | 2987 ft | 235 kts | 330° |
| 2026-05-04 11:36 | 51.74509 | 0.10181 | 2982 ft | 235 kts | 331° |
| 2026-05-04 11:36 | 51.75934 | 0.08893 | 2986 ft | 235 kts | 334° |
| 2026-05-04 11:36 | 51.77510 | 0.08538 | 2975 ft | 231 kts | 13° |
| 2026-05-04 11:37 | 51.79006 | 0.09470 | 2837 ft | 232 kts | 29° |
| 2026-05-04 11:37 | 51.80285 | 0.11047 | 2483 ft | 232 kts | 45° |
| 2026-05-04 11:37 | 51.81409 | 0.12880 | 2131 ft | 227 kts | 44° |
| 2026-05-04 11:37 | 51.82553 | 0.14559 | 1834 ft | 218 kts | 42° |
| 2026-05-04 11:38 | 51.83643 | 0.16188 | 1513 ft | 210 kts | 43° |
| 2026-05-04 11:38 | 51.84677 | 0.17744 | 1243 ft | 197 kts | 42° |
| 2026-05-04 11:38 | 51.85647 | 0.19196 | 949 ft | 183 kts | 43° |
| 2026-05-04 11:38 | 51.86553 | 0.20549 | 647 ft | 170 kts | 42° |
| 2026-05-04 11:39 | 51.87373 | 0.21781 | 414 ft | 153 kts | 43° |
| 2026-05-04 11:39 | 51.88106 | 0.22877 | 332 ft | 123 kts | 43° |
| 2026-05-04 11:40 | 51.88910 | 0.24367 | 353 ft | 0 kts | 72° |
| 2026-05-04 11:41 | 51.88920 | 0.24420 | 354 ft | 10 kts | 73° |
| 2026-05-04 11:41 | 51.88910 | 0.24522 | 354 ft | 6 kts | 104° |
| 2026-05-04 11:41 | 51.88940 | 0.24618 | 354 ft | 14 kts | 60° |
| 2026-05-04 11:42 | 51.89025 | 0.24742 | 353 ft | 21 kts | 39° |
| 2026-05-04 11:42 | 51.89148 | 0.24922 | 352 ft | 26 kts | 44° |
| 2026-05-04 11:42 | 51.89238 | 0.25107 | 355 ft | 18 kts | 77° |
| 2026-05-04 11:42 | 51.89218 | 0.25205 | 354 ft | 0 kts | 126° |
| 2026-05-04 11:43 | 51.89205 | 0.25244 | 357 ft | 8 kts | 119° |
| 2026-05-04 11:43 | 51.89159 | 0.25356 | 348 ft | 16 kts | 131° |
| 2026-05-04 11:43 | 51.89105 | 0.25454 | 354 ft | 2 kts | 132° |
| 2026-05-04 11:43 | 51.89075 | 0.25507 | 352 ft | 10 kts | 132° |
| 2026-05-04 11:44 | 51.89009 | 0.25623 | 348 ft | 17 kts | 135° |
| 2026-05-04 11:44 | 51.88987 | 0.25688 | 350 ft | 5 kts | 81° |
| 2026-05-04 11:44 | 51.88998 | 0.25725 | 355 ft | 3 kts | 49° |